createdAt,value
2023-04-11T00:01:32.628Z,99.9
2023-04-11T00:03:34.694Z,99.9
2023-04-11T00:09:42.692Z,99.9
2023-04-11T00:11:44.397Z,99.9
2023-04-11T00:15:47.899Z,99.9
2023-04-11T00:17:49.544Z,99.9
2023-04-11T00:19:51.202Z,99.9
2023-04-11T00:21:53.515Z,99.9
2023-04-11T00:23:57.856Z,99.9
2023-04-11T00:25:59.563Z,99.9
2023-04-11T00:28:01.279Z,99.9
2023-04-11T00:29:03.741Z,99.9
2023-04-11T00:47:22.294Z,99.9
2023-04-11T00:51:28.912Z,99.9
2023-04-11T00:57:34.003Z,99.9
2023-04-11T01:01:37.500Z,99.9
2023-04-11T01:11:50.662Z,99.9
2023-04-11T01:20:00.736Z,99.9
2023-04-11T01:34:42.718Z,99.9
2023-04-11T01:40:47.799Z,99.9
2023-04-11T01:42:49.522Z,99.9
2023-04-11T01:50:59.557Z,99.9
2023-04-11T01:53:01.283Z,99.9
2023-04-11T01:59:06.417Z,99.9
2023-04-11T02:01:11.366Z,99.9
2023-04-11T02:03:13.231Z,99.9
2023-04-11T02:05:14.775Z,99.9
2023-04-11T02:07:16.486Z,99.9
2023-04-11T02:09:18.201Z,99.9
2023-04-11T02:13:21.644Z,99.9
2023-04-11T02:17:28.339Z,99.9
2023-04-11T02:19:30.034Z,99.9
2023-04-11T02:22:34.238Z,99.9
2023-04-11T02:24:35.932Z,99.9
2023-04-11T02:30:44.477Z,99.9
2023-04-11T02:32:46.086Z,99.9
2023-04-11T02:40:52.935Z,99.9
2023-04-11T02:47:01.402Z,99.9
2023-04-11T02:51:04.778Z,99.9
2023-04-11T02:53:06.486Z,99.9
2023-04-11T02:55:08.209Z,99.9
2023-04-11T02:57:13.154Z,99.9
2023-04-11T02:59:14.856Z,99.9
2023-04-11T03:01:16.595Z,99.9
2023-04-11T03:03:18.434Z,99.9
2023-04-11T03:05:20.036Z,99.9
2023-04-11T03:07:21.741Z,99.9
2023-04-11T03:09:23.454Z,99.9
2023-04-11T03:11:28.391Z,99.9
2023-04-11T03:13:30.110Z,99.9
2023-04-11T03:15:31.839Z,99.9
2023-04-11T03:16:34.326Z,99.9
2023-04-11T03:24:44.607Z,99.9
2023-04-11T03:34:53.080Z,99.9
2023-04-11T03:41:01.469Z,99.9
2023-04-11T03:43:04.554Z,99.9
2023-04-11T03:47:06.638Z,99.9
2023-04-11T03:49:08.364Z,99.9
2023-04-11T03:51:10.096Z,99.9
2023-04-11T03:53:15.015Z,99.9
2023-04-11T03:55:16.743Z,99.9
2023-04-11T03:57:18.479Z,99.9
2023-04-11T03:59:20.198Z,99.9
2023-04-11T04:01:22.933Z,99.9
2023-04-11T04:03:23.976Z,99.9
2023-04-11T04:05:25.353Z,99.9
2023-04-11T04:07:30.306Z,99.9
2023-04-11T04:09:32.003Z,99.9
2023-04-11T04:11:34.502Z,99.9
2023-04-11T04:32:56.626Z,99.9
2023-04-11T04:35:01.657Z,99.9
2023-04-11T04:37:03.340Z,99.9
2023-04-11T04:39:05.017Z,99.9
2023-04-11T04:47:11.883Z,99.9
2023-04-11T04:49:16.860Z,99.9
2023-04-11T04:53:20.338Z,99.9
2023-04-11T04:57:23.803Z,99.9
2023-04-11T04:59:25.527Z,99.9
2023-04-11T05:01:27.275Z,99.9
2023-04-11T05:03:32.337Z,99.9
2023-04-11T05:05:33.914Z,99.9
2023-04-11T05:07:36.356Z,99.9
2023-04-11T05:20:16.097Z,99.9
2023-04-11T05:24:19.554Z,99.9
2023-04-11T05:38:34.800Z,99.9
2023-04-11T05:40:36.506Z,99.9
2023-04-11T05:42:38.235Z,99.9
2023-04-11T05:46:44.881Z,99.9
2023-04-11T05:48:46.614Z,99.9
2023-04-11T05:50:48.339Z,99.9
2023-04-11T05:52:50.050Z,99.9
2023-04-11T05:54:51.782Z,99.9
2023-04-11T05:56:53.487Z,99.9
2023-04-11T05:58:58.411Z,99.9
2023-04-11T06:03:01.988Z,99.9
2023-04-11T06:04:04.424Z,99.9
2023-04-11T06:06:06.034Z,99.9
2023-04-11T06:08:07.740Z,99.9
2023-04-11T06:12:14.399Z,99.9
2023-04-11T06:14:16.108Z,99.9
2023-04-11T06:18:19.528Z,99.9
2023-04-11T06:20:21.216Z,99.9
2023-04-11T06:22:22.945Z,99.9
2023-04-11T06:24:24.665Z,99.9
2023-04-11T06:26:29.624Z,99.9
2023-04-11T06:28:31.323Z,99.9
2023-04-11T06:30:33.039Z,99.9
2023-04-11T06:32:34.790Z,99.9
2023-04-11T06:34:36.483Z,99.9
2023-04-11T06:36:38.211Z,99.9
2023-04-11T06:38:39.914Z,99.9
2023-04-11T06:40:44.868Z,99.9
2023-04-11T06:42:46.594Z,99.9
2023-04-11T06:44:48.667Z,99.9
2023-04-11T06:46:50.122Z,99.9
2023-04-11T06:48:51.790Z,99.9
2023-04-11T06:50:53.523Z,99.9
2023-04-11T06:55:00.315Z,99.9
2023-04-11T07:00:06.361Z,99.9
2023-04-11T07:02:09.716Z,99.9
2023-04-11T07:04:11.663Z,99.6
2023-04-11T07:06:13.177Z,99.6
2023-04-11T07:12:21.789Z,99.5
2023-04-11T07:16:25.384Z,99.1
2023-04-11T07:18:27.165Z,98.5
2023-04-11T07:20:28.951Z,98.5
2023-04-11T07:22:33.994Z,98.6
2023-04-11T07:24:35.798Z,99.1
2023-04-11T07:26:37.583Z,99.3
2023-04-11T07:28:39.376Z,99.9
2023-04-11T07:30:41.179Z,99.9
2023-04-11T07:32:43.027Z,99.9
2023-04-11T07:34:44.786Z,99.9
2023-04-11T07:40:53.466Z,99.9
2023-04-11T07:44:57.022Z,99.9
2023-04-11T07:46:58.815Z,99.6
2023-04-11T07:56:11.771Z,89.9
2023-04-11T07:58:13.558Z,90.1
2023-04-11T08:00:15.350Z,93.3
2023-04-11T08:02:17.279Z,92.7
2023-04-11T08:04:22.407Z,92.8
2023-04-11T08:08:25.825Z,82
2023-04-11T08:10:27.631Z,83.3
2023-04-11T08:12:29.419Z,79.7
2023-04-11T08:14:31.195Z,86.1
2023-04-11T08:16:33.089Z,85.3
2023-04-11T08:18:38.094Z,87.7
2023-04-11T08:20:39.886Z,89.2
2023-04-11T08:22:41.699Z,91.7
2023-04-11T08:24:43.494Z,88.9
2023-04-11T08:26:45.292Z,77.9
2023-04-11T08:28:47.101Z,85
2023-04-11T08:30:48.972Z,91.8
2023-04-11T08:32:54.183Z,81.5
2023-04-11T08:34:55.766Z,74.2
2023-04-11T08:36:57.584Z,83.7
2023-04-11T08:38:59.356Z,82.8
2023-04-11T08:41:01.154Z,78.9
2023-04-11T08:43:02.978Z,75.2
2023-04-11T08:47:09.814Z,81.5
2023-04-11T08:49:11.650Z,75.3
2023-04-11T08:51:13.403Z,72.6
2023-04-11T08:53:42.079Z,72.5
2023-04-11T08:57:45.660Z,70.1
2023-04-11T08:59:50.739Z,75.3
2023-04-11T09:01:52.727Z,75.2
2023-04-11T09:03:54.495Z,76.6
2023-04-11T09:05:56.145Z,66
2023-04-11T09:07:57.978Z,77.3
2023-04-11T09:12:01.584Z,65.3
2023-04-11T09:14:06.654Z,79.1
2023-04-11T09:16:08.505Z,69.4
2023-04-11T09:18:10.623Z,73.8
2023-04-11T09:20:12.050Z,64.9
2023-04-11T09:22:13.861Z,63.4
2023-04-11T09:24:15.656Z,63
2023-04-11T09:28:22.629Z,58.1
2023-04-11T09:30:24.425Z,57.6
2023-04-11T09:32:26.123Z,56.7
2023-04-11T09:34:27.923Z,56.6
2023-04-11T09:38:31.531Z,56.2
2023-04-11T09:40:33.362Z,55.4
2023-04-11T09:46:42.020Z,52.4
2023-04-11T09:47:44.949Z,50.9
2023-04-11T09:49:46.329Z,50.8
2023-04-11T09:53:49.972Z,50.5
2023-04-11T09:55:55.001Z,46.6
2023-04-11T09:59:58.656Z,49.3
2023-04-11T10:04:02.268Z,52.2
2023-04-11T10:06:04.079Z,53.4
2023-04-11T10:08:05.900Z,53.3
2023-04-11T10:10:10.953Z,53.7
2023-04-11T10:12:12.751Z,53.3
2023-04-11T10:20:20.028Z,51
2023-04-11T10:22:21.833Z,51.1
2023-04-11T10:24:28.467Z,52.9
2023-04-11T10:26:28.702Z,53.1
2023-04-11T10:28:30.468Z,53.5
2023-04-11T10:30:32.294Z,55.2
2023-04-11T10:32:34.136Z,55.1
2023-04-11T10:34:37.252Z,56.2
2023-04-11T10:36:37.714Z,58.3
2023-04-11T10:38:42.767Z,58.9
2023-04-11T10:40:44.558Z,58.2
2023-04-11T10:42:46.403Z,57.7
2023-04-11T10:43:48.900Z,55.9
2023-04-11T10:45:50.696Z,52.3
2023-04-11T10:51:59.375Z,45.4
2023-04-11T10:56:02.984Z,45
2023-04-11T10:58:04.791Z,45.2
2023-04-11T11:00:06.727Z,41.3
2023-04-11T11:02:08.571Z,41.8
2023-04-11T11:14:22.564Z,40.6
2023-04-11T11:20:31.262Z,39.2
2023-04-11T11:22:33.039Z,39.3
2023-04-11T11:26:36.701Z,38.1
2023-04-11T11:28:38.508Z,37.5
2023-04-11T11:30:40.314Z,36.7
2023-04-11T11:32:42.154Z,36.4
2023-04-11T11:34:47.200Z,36
2023-04-11T11:36:50.068Z,35.7
2023-04-11T11:39:53.391Z,35.9
2023-04-11T11:41:55.083Z,35.8
2023-04-11T11:43:57.010Z,34.6
2023-04-11T11:45:58.782Z,34.1
2023-04-11T11:50:05.601Z,32.9
2023-04-11T11:52:07.313Z,32.7
2023-04-11T11:54:09.121Z,32.5
2023-04-11T11:56:10.946Z,32.3
2023-04-11T11:58:12.746Z,32.2
2023-04-11T12:00:14.557Z,32
2023-04-11T12:02:19.746Z,31.3
2023-04-11T12:06:23.172Z,29.3
2023-04-11T12:08:24.869Z,28.7
2023-04-11T12:12:28.492Z,28.4
2023-04-11T12:14:30.236Z,28.5
2023-04-11T12:16:35.326Z,28.7
2023-04-11T12:18:37.120Z,28.6
2023-04-11T12:20:38.912Z,28.4
2023-04-11T12:22:40.644Z,28
2023-04-11T12:24:42.434Z,27.7
2023-04-11T12:26:57.308Z,27
2023-04-11T12:28:46.071Z,27
2023-04-11T12:30:51.178Z,26.9
2023-04-11T12:32:53.236Z,26.6
2023-04-11T12:34:54.808Z,26.7
2023-04-11T12:37:23.282Z,26.3
2023-04-11T12:43:31.992Z,30
2023-04-11T12:45:35.349Z,29.9
2023-04-11T12:47:35.652Z,27.4
2023-04-11T12:51:39.240Z,26.9
2023-04-11T12:53:42.642Z,27.1
2023-04-11T12:55:44.532Z,28.3
2023-04-11T12:59:51.278Z,30.3
2023-04-11T13:01:53.224Z,30.6
2023-04-11T13:03:55.022Z,30.4
2023-04-11T13:05:56.736Z,30.3
2023-04-11T13:07:58.547Z,29.8
2023-04-11T13:10:00.360Z,29.4
2023-04-11T13:18:10.896Z,29.7
2023-04-11T13:22:14.494Z,29.5
2023-04-11T13:24:16.297Z,29.4
2023-04-11T13:26:21.411Z,30.3
2023-04-11T13:28:23.159Z,30.7
2023-04-11T13:30:24.998Z,31.1
2023-04-11T13:31:27.617Z,31.6
2023-04-11T13:33:29.326Z,31.7
2023-04-11T13:35:31.114Z,32
2023-04-11T13:37:32.929Z,31.8
2023-04-11T13:43:41.595Z,29.1
2023-04-11T13:45:43.478Z,29
2023-04-11T13:47:45.253Z,29.3
2023-04-11T13:49:47.011Z,29.4
2023-04-11T13:55:55.690Z,30.3
2023-04-11T13:59:59.298Z,30.7
2023-04-11T14:10:11.606Z,30.6
2023-04-11T14:12:13.380Z,31.1
2023-04-11T14:16:17.034Z,31.5
2023-04-11T14:18:18.815Z,31.5
2023-04-11T14:20:20.637Z,31.2
2023-04-11T14:22:25.669Z,30
2023-04-11T14:24:27.471Z,29.6
2023-04-11T14:26:29.288Z,29.1
2023-04-11T14:27:31.814Z,29.1
2023-04-11T14:43:49.579Z,27.2
2023-04-11T14:45:51.342Z,27.3
2023-04-11T14:51:59.979Z,27.5
2023-04-11T14:56:03.629Z,27.1
2023-04-11T14:58:05.436Z,26.4
2023-04-11T15:00:07.356Z,26.3
2023-04-11T15:04:14.252Z,25.8
2023-04-11T15:06:15.901Z,25.7
2023-04-11T15:10:19.494Z,25.6
2023-04-11T15:12:21.319Z,25.4
2023-04-11T15:14:23.123Z,25.4
2023-04-11T15:18:29.986Z,25.4
2023-04-11T15:22:33.591Z,25.7
2023-04-11T15:23:36.135Z,26.1
2023-04-11T15:25:37.951Z,26.4
2023-04-11T15:27:39.724Z,26.6
2023-04-11T15:29:41.536Z,26.8
2023-04-11T15:31:46.763Z,26.9
2023-04-11T15:33:48.381Z,26.9
2023-04-11T15:35:50.227Z,26.9
2023-04-11T15:37:52.004Z,27.4
2023-04-11T15:39:53.795Z,27.7
2023-04-11T15:41:55.624Z,28
2023-04-11T15:43:57.625Z,28.2
2023-04-11T15:46:02.495Z,29
2023-04-11T15:54:09.773Z,30.2
2023-04-11T15:56:11.563Z,30.6
2023-04-11T15:58:13.342Z,30.9
2023-04-11T16:00:18.768Z,31.3
2023-04-11T16:02:20.340Z,31.4
2023-04-11T16:04:22.101Z,31.5
2023-04-11T16:06:23.830Z,31.7
2023-04-11T16:08:25.641Z,31.6
2023-04-11T16:10:27.454Z,31.6
2023-04-11T16:12:29.265Z,31.7
2023-04-11T16:14:34.332Z,32
2023-04-11T16:16:36.183Z,32.1
2023-04-11T16:18:37.908Z,32.4
2023-04-11T16:21:06.565Z,32.4
2023-04-11T16:23:08.351Z,32.6
2023-04-11T16:27:15.223Z,32.7
2023-04-11T16:29:17.018Z,32.6
2023-04-11T16:31:18.836Z,32.8
2023-04-11T16:35:22.421Z,32.8
2023-04-11T16:37:24.228Z,32.6
2023-04-11T16:39:26.041Z,32.9
2023-04-11T16:43:32.859Z,33.5
2023-04-11T16:57:48.737Z,35.1
2023-04-11T16:59:50.555Z,35
2023-04-11T17:07:57.735Z,34.4
2023-04-11T17:10:02.787Z,34.9
2023-04-11T17:14:06.390Z,35.4
2023-04-11T17:17:10.783Z,35.9
2023-04-11T17:21:14.295Z,36.4
2023-04-11T17:25:21.173Z,37.3
2023-04-11T17:27:22.932Z,37.6
2023-04-11T17:29:24.756Z,38
2023-04-11T17:31:26.560Z,38.4
2023-04-11T17:33:28.328Z,38.8
2023-04-11T17:37:35.171Z,40.1
2023-04-11T17:41:39.129Z,40.6
2023-04-11T17:43:40.934Z,41
2023-04-11T17:45:42.726Z,41.3
2023-04-11T17:47:44.564Z,42
2023-04-11T17:49:46.320Z,42.7
2023-04-11T17:53:53.147Z,44.3
2023-04-11T17:59:58.504Z,45.4
2023-04-11T18:02:00.531Z,45.8
2023-04-11T18:04:02.648Z,46.5
2023-04-11T18:06:07.104Z,47
2023-04-11T18:08:08.893Z,47.4
2023-04-11T18:10:10.663Z,47.9
2023-04-11T18:13:14.989Z,49.1
2023-04-11T18:15:16.826Z,49.5
2023-04-11T18:17:18.523Z,49.9
2023-04-11T18:19:23.563Z,51.1
2023-04-11T18:21:25.338Z,51.6
2023-04-11T18:23:27.111Z,52
2023-04-11T18:27:30.681Z,52.9
2023-04-11T18:31:34.263Z,53.8
2023-04-11T18:33:42.388Z,54.8
2023-04-11T18:35:41.093Z,55
2023-04-11T18:37:42.785Z,55.4
2023-04-11T18:39:44.559Z,56
2023-04-11T18:41:46.863Z,56.7
2023-04-11T18:43:48.104Z,57.1
2023-04-11T18:45:51.439Z,57.8
2023-04-11T18:47:56.468Z,58.3
2023-04-11T18:49:58.201Z,58.9
2023-04-11T18:51:59.947Z,59
2023-04-11T18:56:03.592Z,59.5
2023-04-11T18:58:06.789Z,59.9
2023-04-11T19:00:09.817Z,60.3
2023-04-11T19:04:14.399Z,61
2023-04-11T19:07:18.254Z,61.2
2023-04-11T19:11:21.817Z,61.1
2023-04-11T19:13:23.577Z,61.7
2023-04-11T19:15:28.614Z,61.9
2023-04-11T19:17:30.425Z,62.4
2023-04-11T19:19:32.149Z,62.5
2023-04-11T19:21:33.930Z,62.7
2023-04-11T19:23:35.733Z,63.2
2023-04-11T19:25:37.495Z,64.2
2023-04-11T19:27:39.275Z,64.4
2023-04-11T19:29:44.293Z,65.4
2023-04-11T19:31:46.143Z,65.5
2023-04-11T19:33:47.835Z,66.5
2023-04-11T19:35:49.683Z,66.8
2023-04-11T19:37:51.376Z,67.4
2023-04-11T19:39:53.157Z,67.9
2023-04-11T19:41:54.956Z,69.4
2023-04-11T19:43:59.968Z,70.1
2023-04-11T19:46:01.828Z,70.2
2023-04-11T19:48:03.598Z,71.3
2023-04-11T19:50:05.278Z,71.3
2023-04-11T19:52:07.090Z,71.6
2023-04-11T19:54:08.857Z,71.5
2023-04-11T19:56:10.634Z,71.9
2023-04-11T20:02:19.315Z,72.7
2023-04-11T20:31:17.458Z,85
2023-04-11T20:33:19.113Z,86.7
2023-04-11T20:35:20.913Z,87.2
2023-04-11T20:37:22.635Z,89.3
2023-04-11T20:43:31.233Z,91.7
2023-04-11T20:47:34.728Z,92.2
2023-04-11T20:53:43.277Z,94.6
2023-04-11T20:58:49.300Z,95.9
2023-04-11T21:00:51.062Z,96.2
2023-04-11T21:02:52.937Z,96.8
2023-04-11T21:04:54.574Z,97.4
2023-04-11T21:06:59.574Z,98.2
2023-04-11T21:09:01.345Z,98.5
2023-04-11T21:11:03.106Z,98.6
2023-04-11T21:13:04.864Z,99.1
2023-04-11T21:15:06.650Z,99.2
2023-04-11T21:17:08.376Z,99.5
2023-04-11T21:19:10.157Z,99.5
2023-04-11T21:23:16.989Z,99.9
2023-04-11T21:27:20.521Z,99.9
2023-04-11T21:29:22.288Z,99.9
2023-04-11T21:31:24.238Z,99.9
2023-04-11T21:33:25.828Z,99.9
2023-04-11T21:37:32.578Z,99.9
2023-04-11T21:41:36.107Z,99.9
2023-04-11T21:43:37.871Z,99.9
2023-04-11T21:45:39.661Z,99.9
2023-04-11T21:47:42.069Z,99.9
2023-04-11T21:54:52.455Z,99.9
2023-04-11T21:56:54.215Z,99.9
2023-04-11T21:58:55.968Z,99.9
2023-04-11T22:03:02.925Z,99.9
2023-04-11T22:05:06.857Z,99.9
2023-04-11T22:07:06.315Z,99.9
2023-04-11T22:09:08.078Z,99.9
2023-04-11T22:11:09.805Z,99.9
2023-04-11T22:15:13.345Z,99.9
2023-04-11T22:17:18.359Z,99.9
2023-04-11T22:19:20.140Z,99.9
2023-04-11T22:21:21.914Z,99.9
2023-04-11T22:23:23.687Z,99.9
2023-04-11T22:27:27.237Z,99.9
2023-04-11T22:29:28.951Z,99.9
2023-04-11T22:31:33.991Z,99.9
2023-04-11T22:33:36.108Z,99.9
2023-04-11T22:35:37.542Z,99.9
2023-04-11T22:37:39.254Z,99.9
2023-04-11T22:39:41.013Z,99.9
2023-04-11T22:41:42.779Z,99.9
2023-04-11T22:43:44.580Z,99.9
2023-04-11T22:45:49.580Z,99.9
2023-04-11T22:47:51.355Z,99.9
2023-04-11T22:49:53.081Z,99.9
2023-04-11T22:50:55.580Z,99.9
2023-04-11T22:52:57.326Z,99.9
2023-04-11T22:54:59.103Z,99.9
2023-04-11T22:57:00.913Z,99.9
2023-04-11T22:59:05.896Z,99.9
2023-04-11T23:01:07.772Z,99.9
2023-04-11T23:03:09.469Z,99.9
2023-04-11T23:05:11.213Z,99.9
2023-04-11T23:09:14.814Z,99.9
2023-04-11T23:11:16.507Z,99.9
2023-04-11T23:15:23.273Z,99.9
2023-04-11T23:17:25.084Z,99.9
2023-04-11T23:19:26.802Z,99.9
2023-04-11T23:21:28.577Z,99.9
2023-04-11T23:23:30.357Z,99.9
2023-04-11T23:25:32.107Z,99.9
2023-04-11T23:27:37.100Z,99.9
2023-04-11T23:29:39.522Z,99.9
2023-04-11T23:31:40.649Z,99.9
2023-04-11T23:33:42.395Z,99.9
2023-04-11T23:35:44.188Z,99.9
2023-04-11T23:37:45.941Z,99.9
2023-04-11T23:45:56.280Z,99.9
2023-04-11T23:48:23.031Z,99.9
2023-04-11T23:50:24.800Z,99.9
2023-04-11T23:52:26.543Z,99.9
2023-04-11T23:54:31.595Z,99.9
2023-04-11T23:56:33.330Z,99.9
